Time;durP1;ratioP1;P1;durP2;ratioP2;P2;SDS_P1;SDS_P2;PMS_P1;PMS_P2;Temp;Humidity;BMP_temperature;BMP_pressure;BME280_temperature;BME280_humidity;BME280_pressure;Samples;Min_cycle;Max_cycle;Signal;HPM_P1;HPM_P2
2021/01/20 00:01:35;;;;;;;11.55;6.53;;;9.80;91.70;;;;;;5095287;28;20032;-63
2021/01/20 00:04:01;;;;;;;11.90;6.10;;;9.80;91.70;;;;;;5095664;28;20445;-63
2021/01/20 00:06:26;;;;;;;9.93;5.35;;;9.80;91.70;;;;;;5094221;28;20119;-63
2021/01/20 00:08:52;;;;;;;13.50;6.50;;;9.80;91.70;;;;;;5095010;28;20027;-63
2021/01/20 00:11:18;;;;;;;10.48;5.90;;;9.80;91.60;;;;;;5095517;28;20115;-63
2021/01/20 00:13:44;;;;;;;12.82;7.63;;;9.80;91.60;;;;;;5094952;28;20036;-63
2021/01/20 00:16:09;;;;;;;12.73;6.35;;;9.80;91.60;;;;;;5094871;28;20044;-63
2021/01/20 00:18:35;;;;;;;12.63;7.22;;;9.80;91.60;;;;;;5095487;28;20032;-63
2021/01/20 00:21:00;;;;;;;11.23;6.18;;;9.80;91.60;;;;;;5093956;28;20036;-63
2021/01/20 00:23:26;;;;;;;9.82;5.75;;;9.80;91.50;;;;;;5094947;28;20119;-63
2021/01/20 00:25:52;;;;;;;12.65;7.57;;;9.70;91.60;;;;;;5109481;28;20020;-63
2021/01/20 00:28:17;;;;;;;10.32;6.88;;;9.70;91.60;;;;;;5094532;28;20073;-63
2021/01/20 00:30:43;;;;;;;10.65;7.00;;;9.70;91.60;;;;;;5095264;28;20514;-63
2021/01/20 00:33:08;;;;;;;11.32;6.18;;;9.70;91.50;;;;;;5095282;28;20044;-63
2021/01/20 00:35:34;;;;;;;11.50;5.22;;;9.70;91.50;;;;;;5094413;28;20020;-63
2021/01/20 00:38:00;;;;;;;10.82;4.97;;;9.70;91.50;;;;;;5095116;28;20148;-63
2021/01/20 00:40:26;;;;;;;10.95;6.85;;;9.70;91.50;;;;;;5095148;28;20032;-63
2021/01/20 00:42:51;;;;;;;10.85;6.30;;;9.70;91.40;;;;;;5093873;28;20563;-63
2021/01/20 00:45:17;;;;;;;11.70;7.05;;;9.70;91.50;;;;;;5094704;28;20052;-63
2021/01/20 00:47:47;;;;;;;12.30;7.60;;;9.70;91.40;;;;;;5094767;28;20081;-63
2021/01/20 00:50:12;;;;;;;9.85;4.75;;;9.60;91.40;;;;;;5094499;28;20414;-63
2021/01/20 00:52:38;;;;;;;12.15;5.75;;;9.70;91.50;;;;;;5094800;28;20115;-63
2021/01/20 00:55:06;;;;;;;13.93;7.80;;;9.70;91.40;;;;;;5094331;28;20054;-63
2021/01/20 00:57:32;;;;;;;10.10;6.97;;;9.70;91.30;;;;;;5094516;28;20429;-63
2021/01/20 00:59:58;;;;;;;10.73;6.30;;;9.60;91.30;;;;;;5109002;28;20024;-63
2021/01/20 01:02:23;;;;;;;8.90;5.03;;;9.60;91.30;;;;;;5094556;28;20106;-63
2021/01/20 01:04:50;;;;;;;11.27;6.30;;;9.60;91.40;;;;;;5092584;28;20028;-63
2021/01/20 01:20:43;;;;;;;16.13;7.38;;;9.50;91.40;;;;;;5097707;28;20028;-63
2021/01/20 01:23:09;;;;;;;15.23;7.45;;;9.40;91.50;;;;;;5093072;28;20378;-63
2021/01/20 01:25:34;;;;;;;13.15;7.03;;;9.40;91.50;;;;;;5093262;28;20077;-63
2021/01/20 01:28:13;;;;;;;13.15;6.68;;;9.40;91.50;;;;;;5092668;28;20024;-63
2021/01/20 01:30:50;;;;;;;14.88;7.63;;;9.30;91.60;;;;;;5092578;28;20039;-63
2021/01/20 01:33:15;;;;;;;9.63;5.80;;;9.40;91.60;;;;;;5093279;28;20122;-63
2021/01/20 01:35:42;;;;;;;14.10;7.32;;;9.40;91.60;;;;;;5092427;28;20032;-63
2021/01/20 01:38:08;;;;;;;12.93;7.45;;;9.40;91.50;;;;;;5092650;28;20105;-63
2021/01/20 01:40:56;;;;;;;14.07;7.85;;;9.40;91.80;;;;;;5092669;28;20034;-63
2021/01/20 01:43:40;;;;;;;;;;;9.40;91.40;;;;;;5094623;28;20070;-63
2021/01/20 01:46:25;;;;;;;11.48;6.82;;;9.40;91.40;;;;;;5107957;28;19969;-63
2021/01/20 01:49:07;;;;;;;16.67;8.00;;;9.30;91.40;;;;;;5109429;28;20024;-63
2021/01/20 01:51:33;;;;;;;18.80;8.10;;;9.30;91.50;;;;;;5109459;28;20438;-63
2021/01/20 01:54:17;;;;;;;15.20;7.22;;;9.30;91.50;;;;;;5111356;28;20055;-63
2021/01/20 01:56:44;;;;;;;16.83;7.22;;;9.30;91.50;;;;;;5109476;28;20031;-63
2021/01/20 01:59:13;;;;;;;12.75;6.93;;;9.30;91.50;;;;;;5106553;28;20024;-63
2021/01/20 02:01:40;;;;;;;16.63;6.35;;;9.20;91.50;;;;;;5106478;28;20020;-62
2021/01/20 02:04:09;;;;;;;15.88;6.00;;;9.20;91.50;;;;;;5110554;28;20043;-62
2021/01/20 02:06:41;;;;;;;11.27;6.50;;;9.30;91.60;;;;;;5109637;28;20016;-63
2021/01/20 02:09:24;;;;;;;16.02;8.10;;;9.30;91.50;;;;;;5111104;28;20028;-62
2021/01/20 02:12:08;;;;;;;14.77;6.90;;;9.30;91.30;;;;;;5111234;28;20425;-62
2021/01/20 02:14:49;;;;;;;10.82;6.57;;;9.20;91.40;;;;;;5109706;28;20483;-63
2021/01/20 02:18:02;;;;;;;16.95;8.65;;;9.20;91.50;;;;;;5107395;28;20030;-63
2021/01/20 02:21:24;;;;;;;12.32;7.53;;;9.30;91.40;;;;;;5091448;28;20118;-63
2021/01/20 02:24:11;;;;;;;16.40;8.05;;;9.30;91.40;;;;;;5096938;28;20070;-63
2021/01/20 02:27:06;;;;;;;13.35;7.07;;;9.30;91.40;;;;;;5099757;28;20521;-63
2021/01/20 02:30:07;;;;;;;11.85;6.55;;;9.20;91.40;;;;;;5091056;28;20039;-63
2021/01/20 02:32:56;;;;;;;14.73;6.88;;;9.20;91.40;;;;;;5097078;28;20046;-63
2021/01/20 02:35:41;;;;;;;14.70;6.78;;;9.20;91.40;;;;;;5091223;28;20028;-63
2021/01/20 02:38:08;;;;;;;15.88;6.85;;;9.30;91.50;;;;;;5095616;28;20074;-63
2021/01/20 02:41:00;;;;;;;8.73;5.75;;;9.30;91.40;;;;;;5089434;28;20112;-63
2021/01/20 02:44:02;;;;;;;12.20;6.75;;;9.30;91.30;;;;;;5069378;28;20039;-63
2021/01/20 02:46:45;;;;;;;11.90;7.07;;;9.40;91.20;;;;;;5091387;28;20055;-63
2021/01/20 02:49:20;;;;;;;11.40;6.47;;;9.30;91.20;;;;;;5091158;28;20032;-63
2021/01/20 02:51:54;;;;;;;11.27;7.05;;;9.30;91.20;;;;;;5106639;28;20426;-63
2021/01/20 02:54:41;;;;;;;14.15;6.32;;;9.30;91.20;;;;;;5091748;28;20093;-62
2021/01/20 02:57:29;;;;;;;17.20;7.63;;;9.30;91.30;;;;;;5092156;28;20032;-63
2021/01/20 03:00:04;;;;;;;15.77;8.15;;;9.30;91.40;;;;;;5094077;28;20031;-63
2021/01/20 03:02:38;;;;;;;12.73;6.60;;;9.30;91.30;;;;;;5102919;28;20025;-63
2021/01/20 03:05:05;;;;;;;15.77;7.55;;;9.30;91.30;;;;;;5091949;28;20040;-63
2021/01/20 03:07:32;;;;;;;14.60;6.78;;;9.20;91.40;;;;;;5092842;28;20119;-63
2021/01/20 03:09:59;;;;;;;16.38;7.13;;;9.30;91.40;;;;;;5092535;28;20032;-63
2021/01/20 03:12:31;;;;;;;14.63;8.93;;;9.20;91.40;;;;;;5091890;28;20036;-63
2021/01/20 03:15:02;;;;;;;17.08;8.25;;;9.30;91.40;;;;;;5092583;28;20051;-63
2021/01/20 03:17:31;;;;;;;15.68;7.57;;;9.30;91.40;;;;;;5092289;28;20040;-63
2021/01/20 03:19:57;;;;;;;13.07;7.65;;;9.30;91.30;;;;;;5092523;28;20051;-63
2021/01/20 03:22:23;;;;;;;14.23;7.68;;;9.30;91.30;;;;;;5092408;28;20042;-63
2021/01/20 03:24:49;;;;;;;19.20;9.65;;;9.30;91.40;;;;;;5092153;28;20457;-63
2021/01/20 03:27:14;;;;;;;17.55;9.70;;;9.30;91.30;;;;;;5092052;28;20039;-62
2021/01/20 03:29:40;;;;;;;17.40;8.90;;;9.30;91.30;;;;;;5092737;28;20047;-62
2021/01/20 03:32:06;;;;;;;14.38;7.25;;;9.30;91.30;;;;;;5091910;28;20028;-63
2021/01/20 03:34:31;;;;;;;14.85;7.90;;;9.30;91.30;;;;;;5092219;28;20102;-63
2021/01/20 03:36:57;;;;;;;18.80;8.90;;;9.30;91.20;;;;;;5098382;28;20036;-63
2021/01/20 03:39:22;;;;;;;19.88;8.50;;;9.30;91.30;;;;;;5091932;28;20024;-63
2021/01/20 03:41:48;;;;;;;14.32;7.95;;;9.20;91.30;;;;;;5091838;28;20036;-63
2021/01/20 03:44:14;;;;;;;14.90;6.03;;;9.30;91.30;;;;;;5092191;28;20127;-63
2021/01/20 03:46:39;;;;;;;18.48;8.27;;;9.20;91.40;;;;;;5091335;28;20488;-63
2021/01/20 03:49:05;;;;;;;17.02;7.30;;;9.20;91.40;;;;;;5092478;28;20031;-63
2021/01/20 03:51:30;;;;;;;11.82;6.20;;;9.30;91.30;;;;;;5092202;28;20035;-63
2021/01/20 03:53:57;;;;;;;16.35;7.97;;;9.30;91.20;;;;;;5091249;28;20399;-63
2021/01/20 03:56:23;;;;;;;16.70;8.65;;;9.30;91.20;;;;;;5094457;28;20039;-63
2021/01/20 03:58:49;;;;;;;13.50;7.25;;;9.30;91.20;;;;;;5096026;28;20032;-62
2021/01/20 04:01:15;;;;;;;17.38;7.75;;;9.30;91.10;;;;;;5095362;28;20047;-63
2021/01/20 04:03:40;;;;;;;19.23;9.32;;;9.30;91.20;;;;;;5095664;28;20086;-63
2021/01/20 04:06:18;;;;;;;13.43;7.18;;;9.20;91.30;;;;;;5093929;28;20426;-63
2021/01/20 04:08:44;;;;;;;11.93;7.10;;;9.10;91.40;;;;;;5095635;28;20032;-63
2021/01/20 04:11:09;;;;;;;17.23;10.07;;;9.20;91.50;;;;;;5095461;28;20035;-63
2021/01/20 04:13:37;;;;;;;14.45;9.30;;;9.20;91.50;;;;;;5094966;28;20048;-63
2021/01/20 04:16:03;;;;;;;19.00;9.25;;;9.20;91.50;;;;;;5095327;28;20024;-63
2021/01/20 04:18:29;;;;;;;17.83;9.20;;;9.10;91.50;;;;;;5095448;28;20027;-63
2021/01/20 04:20:54;;;;;;;13.90;7.25;;;9.10;91.60;;;;;;5094984;28;20028;-63
2021/01/20 04:23:20;;;;;;;13.60;7.85;;;9.20;91.60;;;;;;5095214;28;20024;-63
2021/01/20 04:25:46;;;;;;;16.10;8.73;;;9.10;91.70;;;;;;5095104;28;20031;-63
2021/01/20 04:28:11;;;;;;;13.65;7.30;;;9.10;91.70;;;;;;5095062;28;20035;-62
2021/01/20 04:30:37;;;;;;;17.17;9.52;;;9.10;91.60;;;;;;5095014;28;20129;-63
2021/01/20 04:33:03;;;;;;;17.25;10.60;;;9.10;91.60;;;;;;5095366;28;20040;-63
2021/01/20 04:35:28;;;;;;;19.02;8.15;;;9.10;91.60;;;;;;5094793;28;20028;-63
2021/01/20 04:37:54;;;;;;;18.23;10.68;;;9.10;91.70;;;;;;5094751;28;20055;-63
2021/01/20 04:40:20;;;;;;;18.10;10.15;;;9.10;91.80;;;;;;5095107;28;20110;-63
2021/01/20 04:42:46;;;;;;;16.35;9.32;;;9.10;91.70;;;;;;5094461;28;20032;-63
2021/01/20 04:45:12;;;;;;;14.75;9.30;;;9.10;91.80;;;;;;5094863;28;20069;-63
2021/01/20 04:47:39;;;;;;;14.98;9.90;;;9.10;91.80;;;;;;5095066;28;20032;-63
2021/01/20 04:50:06;;;;;;;18.17;8.20;;;9.10;91.70;;;;;;5094110;28;20034;-63
2021/01/20 04:52:33;;;;;;;16.05;8.77;;;9.10;91.70;;;;;;5094886;28;20048;-63
2021/01/20 04:55:01;;;;;;;17.83;9.82;;;9.20;91.70;;;;;;5094945;28;20047;-63
2021/01/20 04:57:28;;;;;;;16.85;7.43;;;9.20;91.70;;;;;;5094277;28;20213;-63
2021/01/20 04:59:54;;;;;;;13.20;8.00;;;9.10;91.70;;;;;;5094709;28;20035;-63
2021/01/20 05:02:21;;;;;;;9.90;5.65;;;9.10;91.70;;;;;;5094807;28;20032;-63
2021/01/20 05:04:47;;;;;;;17.67;8.15;;;9.10;91.70;;;;;;5093955;28;20031;-63
2021/01/20 05:07:13;;;;;;;13.02;6.15;;;9.20;91.70;;;;;;5093555;28;20028;-63
2021/01/20 05:09:38;;;;;;;12.93;6.38;;;9.20;91.70;;;;;;5094259;28;20525;-63
2021/01/20 05:12:04;;;;;;;8.88;4.95;;;9.20;91.60;;;;;;5094254;28;20126;-63
2021/01/20 05:14:30;;;;;;;10.98;6.82;;;9.30;91.60;;;;;;5094286;28;20073;-63
2021/01/20 05:17:07;;;;;;;12.93;7.03;;;9.30;91.50;;;;;;5093820;28;20057;-63
2021/01/20 05:19:40;;;;;;;13.57;6.95;;;9.30;91.50;;;;;;5094110;28;20036;-63
2021/01/20 05:22:07;;;;;;;16.03;7.27;;;9.30;91.50;;;;;;5094395;28;20032;-63
2021/01/20 05:24:35;;;;;;;9.07;5.05;;;9.30;91.50;;;;;;5093692;28;20761;-63
2021/01/20 05:27:01;;;;;;;12.65;6.65;;;9.30;91.50;;;;;;5093981;28;20042;-63
2021/01/20 05:29:27;;;;;;;11.15;6.57;;;9.30;91.50;;;;;;5094128;28;20036;-63
2021/01/20 05:31:53;;;;;;;10.00;5.90;;;9.30;91.40;;;;;;5093440;28;20119;-63
2021/01/20 05:34:22;;;;;;;13.35;6.43;;;9.30;91.40;;;;;;5093743;28;20051;-63
2021/01/20 05:37:06;;;;;;;14.50;8.38;;;9.40;91.30;;;;;;5094174;28;20484;-63
2021/01/20 05:39:32;;;;;;;13.90;8.05;;;9.40;91.30;;;;;;5093126;28;20032;-63
2021/01/20 05:42:09;;;;;;;12.98;7.97;;;9.30;91.30;;;;;;5094069;28;20085;-63
2021/01/20 05:44:36;;;;;;;13.35;7.15;;;9.40;91.40;;;;;;5093359;28;20035;-63
2021/01/20 05:47:10;;;;;;;14.18;7.05;;;9.40;91.50;;;;;;5093109;28;20035;-63
2021/01/20 05:49:36;;;;;;;12.45;7.22;;;9.30;91.30;;;;;;5093948;28;20035;-63
2021/01/20 05:52:02;;;;;;;11.65;6.75;;;9.30;91.40;;;;;;5092943;28;20012;-63
2021/01/20 05:54:36;;;;;;;12.68;7.18;;;9.40;91.40;;;;;;5093321;28;20055;-63
2021/01/20 05:57:08;;;;;;;;;;;9.30;91.40;;;;;;5093776;28;20043;-63
2021/01/20 05:59:35;;;;;;;15.15;7.10;;;9.30;91.40;;;;;;5093281;28;19915;-63
2021/01/20 06:02:02;;;;;;;13.13;7.63;;;9.40;91.40;;;;;;5093274;28;20020;-63
2021/01/20 06:04:28;;;;;;;14.30;8.10;;;9.30;91.40;;;;;;5093630;28;20028;-62
2021/01/20 06:06:56;;;;;;;13.45;8.43;;;9.30;91.50;;;;;;5092940;28;20387;-63
2021/01/20 06:09:24;;;;;;;18.05;8.60;;;9.30;91.50;;;;;;5093264;28;20028;-63
2021/01/20 06:11:50;;;;;;;15.77;7.60;;;9.30;91.50;;;;;;5093174;28;20498;-62
2021/01/20 06:14:15;;;;;;;14.05;8.48;;;9.30;91.50;;;;;;5107810;28;20043;-62
2021/01/20 06:16:42;;;;;;;14.93;8.07;;;9.30;91.60;;;;;;5112474;28;20023;-62
2021/01/20 06:19:09;;;;;;;18.13;8.60;;;9.30;91.70;;;;;;5095573;28;20495;-63
2021/01/20 06:21:36;;;;;;;11.52;6.35;;;9.20;91.70;;;;;;5094914;28;20437;-63
2021/01/20 06:24:29;;;;;;;13.70;7.35;;;9.20;91.80;;;;;;5103115;28;20050;-63
2021/01/20 06:27:23;;;;;;;19.65;8.13;;;9.30;91.80;;;;;;5111546;28;20032;-63
2021/01/20 06:29:56;;;;;;;12.40;6.38;;;9.30;91.70;;;;;;5107136;28;20028;-63
2021/01/20 06:32:25;;;;;;;17.73;9.88;;;9.30;91.70;;;;;;5107547;28;20020;-63
2021/01/20 06:34:55;;;;;;;14.15;7.85;;;9.30;91.60;;;;;;5104868;28;20058;-63
2021/01/20 06:37:37;;;;;;;10.48;6.28;;;9.30;91.70;;;;;;5108313;28;20035;-63
2021/01/20 06:40:24;;;;;;;13.60;7.40;;;9.30;91.60;;;;;;5103566;28;20746;-62
2021/01/20 06:42:50;;;;;;;8.90;5.20;;;9.40;91.50;;;;;;5102054;28;20360;-62
2021/01/20 06:45:21;;;;;;;6.88;4.45;;;9.40;91.50;;;;;;5108151;28;20466;-63
2021/01/20 06:47:59;;;;;;;12.30;6.85;;;9.50;91.40;;;;;;5109299;28;20027;-63
2021/01/20 06:50:29;;;;;;;9.55;6.22;;;9.50;91.30;;;;;;5105583;28;20073;-63
2021/01/20 06:53:06;;;;;;;12.85;7.20;;;9.40;91.30;;;;;;5109020;28;20027;-63
2021/01/20 06:55:32;;;;;;;13.68;6.32;;;9.50;91.30;;;;;;5108504;28;20019;-63
2021/01/20 06:58:18;;;;;;;11.32;5.60;;;9.40;91.30;;;;;;5109952;28;20015;-62
2021/01/20 07:01:04;;;;;;;16.25;5.82;;;9.40;91.30;;;;;;5110006;28;20092;-63
2021/01/20 07:03:48;;;;;;;12.43;5.63;;;9.40;91.30;;;;;;5109278;28;20058;-63
2021/01/20 07:06:35;;;;;;;9.27;5.85;;;9.50;91.30;;;;;;5107142;28;20047;-62
2021/01/20 07:09:05;;;;;;;12.40;5.85;;;9.50;91.30;;;;;;5107823;28;20055;-62
2021/01/20 07:11:32;;;;;;;10.43;5.70;;;9.50;91.30;;;;;;5107454;28;20031;-64
2021/01/20 07:14:00;;;;;;;10.25;5.95;;;9.50;91.20;;;;;;5107362;28;20035;-63
2021/01/20 07:16:28;;;;;;;11.85;6.70;;;9.50;91.10;;;;;;5108404;28;20035;-63
2021/01/20 07:18:55;;;;;;;11.05;5.93;;;9.50;91.10;;;;;;5109106;28;20054;-63
2021/01/20 07:21:20;;;;;;;8.73;5.45;;;9.50;91.20;;;;;;5107334;28;20057;-65
2021/01/20 07:23:46;;;;;;;12.85;5.60;;;9.60;91.10;;;;;;5107132;28;20031;-62
2021/01/20 07:26:13;;;;;;;10.13;5.15;;;9.60;91.10;;;;;;5105440;28;20056;-61
2021/01/20 07:28:39;;;;;;;10.35;5.00;;;9.60;91.10;;;;;;5108888;28;20077;-61
2021/01/20 07:31:13;;;;;;;8.75;5.03;;;9.60;91.10;;;;;;5111334;28;20031;-62
2021/01/20 07:33:40;;;;;;;12.48;6.40;;;9.60;91.00;;;;;;5111547;27;20058;-63
2021/01/20 07:36:11;;;;;;;13.98;6.60;;;9.60;91.00;;;;;;5110223;28;20023;-64
2021/01/20 07:38:37;;;;;;;7.55;3.80;;;9.60;91.00;;;;;;5106740;28;20039;-63
2021/01/20 07:41:18;;;;;;;9.57;6.05;;;9.60;91.00;;;;;;5107397;28;20380;-63
2021/01/20 07:43:44;;;;;;;10.77;5.43;;;9.60;91.00;;;;;;5110303;28;20102;-63
2021/01/20 07:46:14;;;;;;;8.45;4.35;;;9.60;91.00;;;;;;5104229;28;20132;-63
2021/01/20 07:48:40;;;;;;;7.57;4.45;;;9.60;91.00;;;;;;5098789;28;20028;-63
2021/01/20 07:51:05;;;;;;;10.80;5.65;;;9.60;91.00;;;;;;5101282;28;20038;-63
2021/01/20 07:53:31;;;;;;;9.95;4.80;;;9.60;91.00;;;;;;5100077;28;20042;-63
2021/01/20 07:55:57;;;;;;;5.57;3.30;;;9.70;91.00;;;;;;5102292;28;20038;-63
2021/01/20 07:58:29;;;;;;;8.18;4.20;;;9.70;91.00;;;;;;5098879;28;20394;-63
2021/01/20 08:00:56;;;;;;;6.20;4.03;;;9.70;91.00;;;;;;5103934;28;20027;-63
2021/01/20 08:03:33;;;;;;;9.60;4.40;;;9.70;91.00;;;;;;5100329;28;20415;-63
2021/01/20 08:05:59;;;;;;;7.53;4.63;;;9.70;91.00;;;;;;5103027;28;20025;-63
2021/01/20 08:08:25;;;;;;;9.93;4.97;;;9.70;90.90;;;;;;5102495;28;20051;-63
2021/01/20 08:10:56;;;;;;;8.27;5.38;;;9.70;91.00;;;;;;5102063;28;20171;-63
2021/01/20 08:13:25;;;;;;;13.55;5.25;;;9.60;91.00;;;;;;5107600;28;20031;-64
2021/01/20 08:15:51;;;;;;;9.38;5.03;;;9.70;91.00;;;;;;5104395;28;20138;-63
2021/01/20 08:18:18;;;;;;;8.88;4.72;;;9.70;91.00;;;;;;5101373;28;20526;-63
2021/01/20 08:20:44;;;;;;;9.30;4.22;;;9.70;91.10;;;;;;5099233;28;20383;-63
2021/01/20 08:23:35;;;;;;;6.40;3.58;;;9.70;91.00;;;;;;5102556;28;20040;-63
2021/01/20 08:26:07;;;;;;;8.85;4.57;;;9.70;91.00;;;;;;5102373;28;20391;-63
2021/01/20 08:28:33;;;;;;;10.27;5.55;;;9.70;91.00;;;;;;5092910;28;20024;-63
2021/01/20 08:31:18;;;;;;;7.35;3.80;;;9.70;91.00;;;;;;5096715;28;20024;-64
2021/01/20 08:33:43;;;;;;;12.15;5.13;;;9.70;91.00;;;;;;5098096;28;20126;-63
2021/01/20 08:36:09;;;;;;;15.25;5.05;;;9.70;91.00;;;;;;5098997;28;20107;-66
2021/01/20 08:38:34;;;;;;;6.93;3.63;;;9.70;91.00;;;;;;5103048;28;20032;-63
2021/01/20 08:41:14;;;;;;;12.50;6.10;;;9.70;91.00;;;;;;5099584;28;20028;-63
2021/01/20 08:43:41;;;;;;;9.38;5.60;;;9.70;91.00;;;;;;5102319;28;20494;-63
2021/01/20 08:46:26;;;;;;;12.10;5.80;;;9.70;90.90;;;;;;5096416;28;20159;-63
2021/01/20 08:48:58;;;;;;;10.23;5.82;;;9.70;91.00;;;;;;5091097;28;20016;-63
2021/01/20 08:51:24;;;;;;;9.43;4.78;;;9.70;91.00;;;;;;5094150;28;20123;-63
2021/01/20 08:53:51;;;;;;;9.48;4.90;;;9.70;91.00;;;;;;5092130;28;20044;-63
2021/01/20 08:56:25;;;;;;;7.60;4.50;;;9.70;91.00;;;;;;5095542;28;20460;-63
2021/01/20 08:58:54;;;;;;;8.25;4.43;;;9.70;91.10;;;;;;5093023;28;20487;-63
2021/01/20 09:01:24;;;;;;;8.70;4.35;;;9.70;91.00;;;;;;5093665;28;20115;-63
2021/01/20 09:03:58;;;;;;;10.95;5.53;;;9.70;91.00;;;;;;5091174;28;20020;-63
2021/01/20 09:06:24;;;;;;;;;;;9.70;91.00;;;;;;5091466;28;20020;-63
2021/01/20 09:08:49;;;;;;;6.80;3.90;;;9.70;91.00;;;;;;5092726;28;19907;-63
2021/01/20 09:11:15;;;;;;;6.75;3.58;;;9.70;91.00;;;;;;5093404;28;20028;-63
2021/01/20 09:13:41;;;;;;;11.90;5.40;;;9.70;91.10;;;;;;5093300;28;20484;-63
2021/01/20 09:16:07;;;;;;;6.18;3.72;;;9.70;91.10;;;;;;5099090;28;20023;-63
2021/01/20 09:18:33;;;;;;;7.68;4.47;;;9.70;91.10;;;;;;5094377;28;20504;-64
2021/01/20 09:21:00;;;;;;;6.38;4.05;;;9.70;91.10;;;;;;5100039;28;20023;-63
2021/01/20 09:23:26;;;;;;;10.15;4.30;;;9.70;91.10;;;;;;5099813;28;20032;-63
2021/01/20 09:25:53;;;;;;;11.27;5.05;;;9.70;91.10;;;;;;5100083;28;20028;-63
2021/01/20 09:28:20;;;;;;;7.93;3.45;;;9.80;91.10;;;;;;5098491;28;20457;-63
2021/01/20 09:30:46;;;;;;;9.18;4.70;;;9.80;91.10;;;;;;5098853;28;20394;-63
2021/01/20 09:33:11;;;;;;;7.22;4.05;;;9.80;91.00;;;;;;5102639;28;20111;-72
2021/01/20 09:35:37;;;;;;;7.93;4.00;;;9.80;91.00;;;;;;5098553;28;20483;-63
2021/01/20 09:38:05;;;;;;;9.63;4.40;;;9.80;91.10;;;;;;5096476;28;20024;-62
2021/01/20 09:40:32;;;;;;;7.60;4.35;;;9.80;91.00;;;;;;5102916;28;20400;-63
2021/01/20 09:42:58;;;;;;;5.45;3.88;;;9.80;91.00;;;;;;5100752;28;20042;-63
2021/01/20 09:45:27;;;;;;;6.22;3.65;;;9.80;91.10;;;;;;5090909;28;20052;-63
2021/01/20 09:47:56;;;;;;;8.52;3.95;;;9.80;91.10;;;;;;5092878;28;20054;-62
2021/01/20 09:50:23;;;;;;;5.45;3.03;;;9.70;91.10;;;;;;5094082;28;20024;-63
2021/01/20 09:52:49;;;;;;;6.55;4.20;;;9.80;91.10;;;;;;5089626;28;20051;-63
2021/01/20 09:55:15;;;;;;;8.38;4.40;;;9.80;91.10;;;;;;5090331;28;20499;-62
2021/01/20 09:57:41;;;;;;;7.22;4.03;;;9.80;91.10;;;;;;5092291;28;20028;-63
2021/01/20 10:00:08;;;;;;;8.32;4.82;;;9.80;91.10;;;;;;5088903;28;20042;-63
2021/01/20 10:02:38;;;;;;;8.18;4.38;;;9.80;91.10;;;;;;5092327;28;20119;-64
2021/01/20 10:05:13;;;;;;;7.20;3.78;;;9.90;91.00;;;;;;5099769;28;20077;-62
2021/01/20 10:07:39;;;;;;;5.32;2.92;;;9.90;91.10;;;;;;5093814;28;20483;-63
2021/01/20 10:10:07;;;;;;;9.75;4.43;;;9.90;91.10;;;;;;5101207;28;20062;-70
2021/01/20 10:12:32;;;;;;;9.05;4.55;;;9.80;91.10;;;;;;5104538;28;20028;-63
2021/01/20 10:14:58;;;;;;;8.13;3.22;;;9.80;91.20;;;;;;5106389;28;20097;-63
2021/01/20 10:17:24;;;;;;;5.43;3.15;;;9.80;91.20;;;;;;5099116;28;20024;-63
2021/01/20 10:19:49;;;;;;;8.10;4.03;;;9.80;91.40;;;;;;5093850;28;20086;-63
2021/01/20 10:22:15;;;;;;;6.13;2.22;;;9.80;91.40;;;;;;5106196;28;20035;-62
2021/01/20 10:24:41;;;;;;;8.40;4.43;;;9.80;91.40;;;;;;5105546;28;20028;-63
2021/01/20 10:27:06;;;;;;;7.47;3.97;;;9.90;91.40;;;;;;5100729;28;20016;-63
2021/01/20 10:29:32;;;;;;;9.65;3.03;;;9.80;91.30;;;;;;5093792;28;20046;-63
2021/01/20 10:31:59;;;;;;;5.40;3.45;;;9.90;91.40;;;;;;5101202;28;20047;-62
2021/01/20 10:34:25;;;;;;;5.30;3.50;;;9.90;91.40;;;;;;5089307;28;20474;-62
2021/01/20 10:36:50;;;;;;;6.20;3.75;;;9.90;91.40;;;;;;5099024;28;20660;-62
2021/01/20 10:39:16;;;;;;;8.30;3.55;;;9.90;91.50;;;;;;5100367;28;20028;-62
2021/01/20 10:41:42;;;;;;;6.47;3.38;;;9.90;91.50;;;;;;5095990;28;20085;-62
2021/01/20 10:44:08;;;;;;;6.22;3.75;;;9.90;91.50;;;;;;5102988;28;20039;-62
2021/01/20 10:46:33;;;;;;;4.85;3.05;;;9.90;91.60;;;;;;5091413;28;20056;-62
2021/01/20 10:49:01;;;;;;;4.32;2.88;;;9.90;91.60;;;;;;5091429;28;20126;-62
2021/01/20 10:51:29;;;;;;;5.53;3.33;;;9.90;91.60;;;;;;5091176;28;20024;-62
2021/01/20 10:53:55;;;;;;;7.35;3.53;;;9.90;91.60;;;;;;5091615;28;20036;-62
2021/01/20 10:56:20;;;;;;;7.50;3.50;;;9.90;91.60;;;;;;5090371;28;20031;-63
2021/01/20 10:58:46;;;;;;;3.90;2.10;;;10.00;91.60;;;;;;5098067;28;20053;-63
2021/01/20 11:01:12;;;;;;;4.00;2.65;;;9.90;91.70;;;;;;5101043;28;20020;-62
2021/01/20 11:03:41;;;;;;;5.20;2.92;;;10.00;91.60;;;;;;5098511;28;20028;-63
2021/01/20 11:06:08;;;;;;;5.43;3.20;;;10.10;91.50;;;;;;5102831;28;20364;-62
2021/01/20 11:08:34;;;;;;;5.85;3.50;;;10.10;91.50;;;;;;5108861;28;20080;-63
2021/01/20 11:11:01;;;;;;;3.83;2.38;;;10.20;91.40;;;;;;5108289;28;20028;-63
2021/01/20 11:13:27;;;;;;;6.75;3.35;;;10.20;91.30;;;;;;5111121;28;20433;-63
2021/01/20 11:15:53;;;;;;;8.25;2.80;;;10.20;91.30;;;;;;5109614;28;20024;-62
2021/01/20 11:18:19;;;;;;;6.78;2.85;;;10.20;91.30;;;;;;5113891;28;20028;-62
2021/01/20 11:20:46;;;;;;;5.05;3.17;;;10.30;91.30;;;;;;5097962;28;20031;-63
2021/01/20 11:23:13;;;;;;;5.53;2.67;;;10.30;91.20;;;;;;5095381;28;20036;-63
2021/01/20 11:25:57;;;;;;;4.13;2.72;;;10.30;91.10;;;;;;5096076;28;20040;-62
2021/01/20 11:28:23;;;;;;;3.88;2.40;;;10.30;91.10;;;;;;5095564;28;20368;-63
2021/01/20 11:30:50;;;;;;;4.97;2.97;;;10.40;91.10;;;;;;5101492;28;20126;-63
2021/01/20 11:33:16;;;;;;;4.25;2.60;;;10.30;91.10;;;;;;5092968;28;20044;-63
2021/01/20 11:35:41;;;;;;;4.65;3.22;;;10.30;91.10;;;;;;5105477;28;20070;-63
2021/01/20 11:38:07;;;;;;;5.15;2.53;;;10.40;91.20;;;;;;5110490;28;20080;-63
2021/01/20 11:40:34;;;;;;;5.32;3.15;;;10.30;91.20;;;;;;5110521;28;20024;-62
2021/01/20 11:43:01;;;;;;;4.10;2.42;;;10.40;91.20;;;;;;5111529;28;20019;-63
2021/01/20 11:45:34;;;;;;;5.55;3.10;;;10.30;91.20;;;;;;5105206;28;20068;-62
2021/01/20 11:48:01;;;;;;;3.95;2.70;;;10.40;91.20;;;;;;5100131;28;20020;-65
2021/01/20 11:50:27;;;;;;;4.65;2.65;;;10.40;91.10;;;;;;5105029;28;20146;-62
2021/01/20 11:52:53;;;;;;;5.90;2.42;;;10.40;91.10;;;;;;5101804;28;20114;-62
2021/01/20 11:55:20;;;;;;;4.40;2.67;;;10.50;91.20;;;;;;5113342;28;20126;-63
2021/01/20 11:57:46;;;;;;;5.70;3.08;;;10.50;91.10;;;;;;5111027;28;20050;-62
2021/01/20 12:00:12;;;;;;;3.40;1.70;;;10.40;91.00;;;;;;5109646;28;20035;-62
2021/01/20 12:02:39;;;;;;;8.35;3.13;;;10.50;91.10;;;;;;5112002;28;20023;-62
2021/01/20 12:05:08;;;;;;;4.68;2.78;;;10.40;91.00;;;;;;5110033;27;20031;-62
2021/01/20 12:07:34;;;;;;;7.22;2.80;;;10.50;91.00;;;;;;5113298;28;20115;-62
2021/01/20 12:10:00;;;;;;;4.88;2.88;;;10.50;91.00;;;;;;5111584;28;20036;-62
2021/01/20 12:12:25;;;;;;;4.78;2.60;;;10.40;91.00;;;;;;5113600;28;20081;-62
2021/01/20 12:14:51;;;;;;;5.72;2.50;;;10.40;91.00;;;;;;5111846;28;20444;-62
2021/01/20 12:17:17;;;;;;;2.40;1.70;;;10.40;91.10;;;;;;5111205;28;20051;-62
2021/01/20 12:19:42;;;;;;;3.78;2.25;;;10.50;91.10;;;;;;5113845;28;20027;-63
2021/01/20 12:22:08;;;;;;;4.80;2.40;;;10.50;91.10;;;;;;5110882;28;20486;-62
2021/01/20 12:24:34;;;;;;;6.55;2.95;;;10.50;91.00;;;;;;5112707;28;20057;-62
2021/01/20 12:27:00;;;;;;;6.22;2.17;;;10.60;90.90;;;;;;5112404;28;20016;-63
2021/01/20 12:29:26;;;;;;;6.35;2.47;;;10.50;90.90;;;;;;5112429;28;20035;-62
2021/01/20 12:31:51;;;;;;;3.88;1.80;;;10.50;90.80;;;;;;5111583;28;20023;-62
2021/01/20 12:34:17;;;;;;;2.40;1.80;;;10.60;90.80;;;;;;5109172;28;20042;-61
2021/01/20 12:36:47;;;;;;;2.90;2.03;;;10.60;90.80;;;;;;5110124;27;20051;-62
2021/01/20 12:39:13;;;;;;;3.95;2.28;;;10.60;90.80;;;;;;5110860;28;20030;-62
2021/01/20 12:41:39;;;;;;;3.55;2.17;;;10.70;90.70;;;;;;5111146;28;20386;-62
2021/01/20 12:44:05;;;;;;;5.10;2.22;;;10.70;90.60;;;;;;5111761;28;20031;-62
2021/01/20 12:46:32;;;;;;;4.78;1.83;;;10.80;90.60;;;;;;5109877;28;20130;-62
2021/01/20 12:48:58;;;;;;;2.33;1.42;;;10.80;90.50;;;;;;5110099;28;20035;-63
2021/01/20 12:51:24;;;;;;;2.97;1.67;;;10.80;90.40;;;;;;5109903;28;20066;-69
2021/01/20 12:53:49;;;;;;;22.40;1.90;;;10.90;90.30;;;;;;5107593;28;20059;-62
2021/01/20 12:56:15;;;;;;;0.82;0.82;;;10.90;90.30;;;;;;5109742;28;20497;-63
2021/01/20 12:58:42;;;;;;;2.00;1.17;;;10.90;90.20;;;;;;5099192;28;20047;-62
2021/01/20 13:01:07;;;;;;;4.22;1.67;;;11.00;90.30;;;;;;5111226;28;20773;-62
2021/01/20 13:03:33;;;;;;;1.70;1.40;;;11.00;90.20;;;;;;5100666;28;20059;-62
2021/01/20 13:05:59;;;;;;;3.72;1.60;;;11.00;90.10;;;;;;5108818;28;20024;-62
2021/01/20 13:08:25;;;;;;;1.95;1.33;;;11.10;90.10;;;;;;5108117;28;20031;-62
2021/01/20 13:10:51;;;;;;;3.10;1.65;;;11.00;90.10;;;;;;5107032;28;20031;-62
2021/01/20 13:13:16;;;;;;;4.68;1.58;;;11.10;90.00;;;;;;5109100;28;20036;-62
2021/01/20 13:15:48;;;;;;;2.38;1.33;;;11.10;89.90;;;;;;5102950;28;20373;-62